Time;durP1;ratioP1;P1;durP2;ratioP2;P2;SDS_P1;SDS_P2;PMS_P1;PMS_P2;Temp;Humidity;BMP_temperature;BMP_pressure;BME280_temperature;BME280_humidity;BME280_pressure;Samples;Min_cycle;Max_cycle;Signal;HPM_P1;HPM_P2
2023/05/27 00:01:01;;;;;;;;;8.33;7.00;;;;;17.74;67.30;100373.88;5084037;27;45434;-81
2023/05/27 00:03:27;;;;;;;;;8.33;6.67;;;;;17.90;67.72;100403.84;5084195;28;45275;-81
2023/05/27 00:05:52;;;;;;;;;11.00;11.00;;;;;18.05;67.48;100424.94;5083641;28;46029;-81
2023/05/27 00:08:18;;;;;;;;;6.67;6.67;;;;;18.05;67.37;100424.06;5065339;28;45836;-81
2023/05/27 00:10:43;;;;;;;;;8.33;7.00;;;;;17.03;67.08;100249.03;5083773;28;45442;-81
2023/05/27 00:13:09;;;;;;;;;9.33;9.33;;;;;17.83;67.02;100380.94;5084082;28;45451;-80
2023/05/27 00:15:34;;;;;;;;;3.00;2.00;;;;;18.06;67.46;100417.88;5083852;28;45515;-81
2023/05/27 00:18:01;;;;;;;;;7.00;7.00;;;;;18.37;67.38;100462.75;5083926;28;45568;-80
2023/05/27 00:20:27;;;;;;;;;9.33;8.33;;;;;18.37;67.18;100461.00;5083759;28;45370;-80
2023/05/27 00:22:52;;;;;;;;;7.00;7.00;;;;;18.38;66.69;100451.28;5085019;27;45351;-81
2023/05/27 00:25:20;;;;;;;;;9.67;8.33;;;;;18.20;67.31;100434.59;5086181;27;46695;-81
2023/05/27 00:27:47;;;;;;;;;9.00;7.67;;;;;16.96;67.25;100216.50;5065583;28;45484;-81
2023/05/27 00:30:12;;;;;;;;;6.33;6.33;;;;;17.35;66.97;100292.97;5083743;28;45235;-81
2023/05/27 00:32:38;;;;;;;;;7.00;6.00;;;;;18.07;66.93;100401.16;5083934;27;45227;-81
2023/05/27 00:35:04;;;;;;;;;9.00;8.33;;;;;17.10;67.02;100225.25;5083363;28;45570;-81
2023/05/27 00:37:29;;;;;;;;;9.67;6.67;;;;;18.16;66.99;100424.91;5083377;27;45445;-81
2023/05/27 00:39:55;;;;;;;;;6.00;5.67;;;;;18.40;66.79;100447.78;5083451;28;45427;-81
2023/05/27 00:42:21;;;;;;;;;6.67;6.00;;;;;17.57;66.51;100299.13;5083581;28;45434;-80
2023/05/27 00:44:46;;;;;;;;;6.67;6.67;;;;;18.03;67.19;100384.44;5083276;27;46327;-80
2023/05/27 00:47:12;;;;;;;;;8.00;7.00;;;;;18.28;67.11;100430.19;5064981;28;45494;-81
2023/05/27 00:49:38;;;;;;;;;6.33;6.33;;;;;18.45;66.88;100445.97;5083841;28;45477;-81
2023/05/27 00:52:05;;;;;;;;;9.00;8.33;;;;;17.98;66.81;100358.88;5063501;28;45373;-81
2023/05/27 00:54:33;;;;;;;;;7.00;7.00;;;;;18.33;66.14;100416.94;5080024;28;46586;-81
2023/05/27 00:57:02;;;;;;;;;7.67;6.33;;;;;18.19;65.69;100373.81;5061549;28;45448;-80
2023/05/27 00:59:28;;;;;;;;;7.00;6.67;;;;;18.17;65.77;100375.56;5079953;28;45374;-81
2023/05/27 01:01:53;;;;;;;;;5.33;5.00;;;;;18.55;66.22;100430.94;5079929;28;45407;-81
2023/05/27 01:04:20;;;;;;;;;8.67;7.33;;;;;17.88;66.13;100310.47;5079621;27;46007;-80
2023/05/27 01:07:15;;;;;;;;;6.00;5.33;;;;;18.49;67.07;100426.56;5079629;27;45493;-80
2023/05/27 01:10:00;;;;;;;;;6.33;6.33;;;;;18.19;66.62;100379.97;5080057;28;45378;-81
2023/05/27 01:12:54;;;;;;;;;6.33;6.00;;;;;17.92;67.24;100345.69;5079992;28;45357;-80
2023/05/27 01:15:21;;;;;;;;;6.33;6.00;;;;;16.96;67.11;100176.06;5061239;27;45637;-81
2023/05/27 01:17:48;;;;;;;;;7.33;7.00;;;;;17.83;67.73;100314.88;5079478;28;45446;-81
2023/05/27 01:20:14;;;;;;;;;5.33;5.33;;;;;17.93;67.22;100348.34;5079728;27;45252;-80
2023/05/27 01:22:42;;;;;;;;;7.00;6.00;;;;;18.32;67.38;100415.16;5079924;27;45511;-81
2023/05/27 01:25:09;;;;;;;;;8.33;7.00;;;;;18.07;67.11;100390.59;5079615;27;45375;-80
2023/05/27 01:27:34;;;;;;;;;6.00;5.00;;;;;18.33;67.28;100406.34;5079165;27;45594;-81
2023/05/27 01:30:01;;;;;;;;;6.67;6.33;;;;;18.19;67.19;100401.13;5079398;28;45314;-80
2023/05/27 01:33:02;;;;;;;;;6.00;5.00;;;;;17.97;67.34;100350.09;5078228;27;45325;-80
2023/05/27 01:35:44;;;;;;;;;7.00;7.00;;;;;18.30;66.88;100403.72;5077645;27;45499;-80
2023/05/27 01:38:14;;;;;;;;;5.67;5.67;;;;;17.84;66.97;100322.81;5079515;28;45285;-80
2023/05/27 01:40:41;;;;;;;;;8.33;7.00;;;;;18.15;68.18;100380.00;5079531;28;45393;-80
2023/05/27 01:43:08;;;;;;;;;6.00;6.00;;;;;17.90;67.58;100345.69;5077958;27;45633;-80
2023/05/27 01:45:34;;;;;;;;;6.67;6.00;;;;;17.14;67.97;100231.41;5079034;27;45709;-80
2023/05/27 01:48:00;;;;;;;;;5.67;4.67;;;;;17.15;68.52;100251.66;5078990;27;45327;-81
2023/05/27 01:50:26;;;;;;;;;6.00;6.00;;;;;16.85;68.04;100205.97;5078792;28;45534;-80
2023/05/27 01:52:52;;;;;;;;;7.67;7.00;;;;;16.65;68.11;100169.03;5079003;28;45190;-80
2023/05/27 01:55:17;;;;;;;;;5.67;5.67;;;;;17.93;67.52;100393.28;5078884;27;46173;-80
2023/05/27 01:57:43;;;;;;;;;10.67;7.33;;;;;17.93;69.18;100401.19;5079153;28;45500;-80
2023/05/27 02:00:10;;;;;;;;;5.33;5.33;;;;;16.78;69.10;100195.38;5078981;28;45495;-80
2023/05/27 02:02:36;;;;;;;;;7.33;6.33;;;;;17.72;68.26;100357.16;5079090;28;45477;-81
2023/05/27 02:05:02;;;;;;;;;6.67;6.33;;;;;16.70;68.48;100180.44;5077346;27;46290;-80
2023/05/27 02:07:27;;;;;;;;;7.00;6.00;;;;;17.61;68.48;100330.78;5078790;28;45259;-80
2023/05/27 02:09:53;;;;;;;;;6.33;6.33;;;;;16.85;68.55;100213.88;5078872;28;45513;-80
2023/05/27 02:12:19;;;;;;;;;6.67;5.33;;;;;17.58;68.72;100329.91;5060774;28;45526;-80
2023/05/27 02:14:45;;;;;;;;;6.33;5.67;;;;;17.95;68.40;100395.91;5078897;27;45620;-80
2023/05/27 02:17:11;;;;;;;;;5.33;5.33;;;;;16.29;68.62;100117.19;5078869;28;45426;-80
2023/05/27 02:19:36;;;;;;;;;6.67;6.67;;;;;17.92;69.32;100386.22;5078664;28;45310;-80
2023/05/27 02:22:02;;;;;;;;;7.00;6.00;;;;;17.04;68.63;100240.25;5060455;28;45538;-80
2023/05/27 02:24:28;;;;;;;;;6.33;6.00;;;;;17.84;69.55;100396.78;5078516;28;45523;-81
2023/05/27 02:26:53;;;;;;;;;7.33;7.33;;;;;17.47;69.29;100333.44;5078516;28;45508;-80
2023/05/27 02:29:19;;;;;;;;;8.00;7.33;;;;;17.24;68.91;100282.44;5060359;28;45585;-80
2023/05/27 02:31:45;;;;;;;;;9.00;7.00;;;;;14.54;69.25;99820.41;5078933;28;45231;-80
2023/05/27 02:34:10;;;;;;;;;7.67;7.00;;;;;17.82;69.59;100385.31;5078036;28;45538;-80
2023/05/27 02:36:36;;;;;;;;;8.67;7.67;;;;;17.69;69.29;100360.69;5078261;28;45228;-80
2023/05/27 02:39:01;;;;;;;;;8.00;7.33;;;;;17.14;69.77;100272.78;5078545;28;45377;-79
2023/05/27 02:41:27;;;;;;;;;9.00;7.33;;;;;17.36;69.57;100321.16;5078602;28;45382;-80
2023/05/27 02:43:52;;;;;;;;;7.00;7.00;;;;;17.76;69.82;100385.34;5078132;28;45370;-80
2023/05/27 02:46:18;;;;;;;;;8.00;7.67;;;;;17.64;69.50;100378.31;5078139;28;45544;-80
2023/05/27 02:48:43;;;;;;;;;8.67;7.33;;;;;17.47;71.19;100364.28;5078396;28;45224;-80
2023/05/27 02:51:09;;;;;;;;;7.00;6.00;;;;;16.58;70.12;100221.78;5060197;28;45269;-81
2023/05/27 02:53:34;;;;;;;;;8.00;7.00;;;;;16.80;70.20;100247.25;5078169;28;46064;-80
2023/05/27 02:56:00;;;;;;;;;9.67;8.33;;;;;16.99;70.70;100284.22;5077966;28;45449;-80
2023/05/27 02:58:25;;;;;;;;;10.00;7.00;;;;;16.33;70.10;100158.47;5078191;28;45488;-81
2023/05/27 03:00:51;;;;;;;;;10.00;9.00;;;;;17.05;69.90;100278.94;5076731;28;45504;-80
2023/05/27 03:03:17;;;;;;;;;8.67;7.67;;;;;17.25;69.98;100319.41;5059627;28;46979;-80
2023/05/27 03:05:42;;;;;;;;;9.00;6.67;;;;;17.51;70.05;100368.66;5077731;28;45485;-81
2023/05/27 03:08:08;;;;;;;;;8.67;7.67;;;;;17.05;69.72;100287.75;5059595;28;45488;-81
2023/05/27 03:10:33;;;;;;;;;9.67;8.00;;;;;16.96;69.45;100286.88;5078259;28;45480;-80
2023/05/27 03:12:59;;;;;;;;;5.00;5.00;;;;;17.56;69.92;100377.44;5077698;28;45575;-81
2023/05/27 03:15:25;;;;;;;;;8.00;7.67;;;;;14.43;69.48;99851.94;5077245;28;45250;-81
2023/05/27 03:17:51;;;;;;;;;9.33;7.33;;;;;16.99;69.28;100281.56;5077842;28;45271;-80
2023/05/27 03:20:18;;;;;;;;;9.33;7.67;;;;;15.03;69.52;99972.19;5078298;28;45573;-80
2023/05/27 03:22:44;;;;;;;;;8.67;7.33;;;;;17.38;69.52;100356.34;5077312;28;46058;-81
2023/05/27 03:25:11;;;;;;;;;8.00;7.67;;;;;16.38;69.00;100176.94;5079958;28;45485;-81
2023/05/27 03:27:36;;;;;;;;;9.00;9.00;;;;;17.45;69.59;100371.31;5079535;28;45488;-81
2023/05/27 03:30:04;;;;;;;;;9.67;8.67;;;;;16.98;69.72;100301.81;5077879;28;45461;-81
2023/05/27 03:32:29;;;;;;;;;8.00;8.00;;;;;16.67;69.78;100264.84;5077327;28;45575;-81
2023/05/27 03:34:55;;;;;;;;;10.00;8.67;;;;;17.34;70.16;100376.59;5077282;28;45346;-81
2023/05/27 03:37:20;;;;;;;;;7.00;7.00;;;;;16.67;70.06;100261.31;5077435;28;45528;-79
2023/05/27 03:39:46;;;;;;;;;7.00;7.00;;;;;16.56;70.35;100253.41;5077982;28;45525;-81
2023/05/27 03:42:11;;;;;;;;;8.67;8.33;;;;;16.99;70.24;100331.72;5077339;28;45862;-81
2023/05/27 03:44:37;;;;;;;;;9.00;7.67;;;;;17.14;70.00;100355.47;5077266;27;45425;-81
2023/05/27 03:47:04;;;;;;;;;9.00;8.00;;;;;17.24;70.56;100374.84;5077444;28;45177;-81
2023/05/27 03:49:30;;;;;;;;;7.67;7.33;;;;;16.81;70.86;100312.38;5077622;28;45479;-81
2023/05/27 03:51:55;;;;;;;;;11.67;9.00;;;;;17.06;71.56;100367.78;5077083;28;46604;-83
2023/05/27 03:54:21;;;;;;;;;11.33;9.67;;;;;16.54;71.17;100291.22;5077800;28;45908;-82
2023/05/27 03:56:46;;;;;;;;;9.00;9.00;;;;;16.49;71.37;100280.63;5077727;28;45402;-81
2023/05/27 03:59:13;;;;;;;;;10.00;9.00;;;;;16.22;70.93;100226.13;5077579;28;45426;-82
2023/05/27 04:01:39;;;;;;;;;12.00;9.00;;;;;16.09;70.84;100220.84;5076890;28;46386;-81
2023/05/27 04:04:05;;;;;;;;;10.00;9.00;;;;;15.93;70.86;100176.88;5077096;28;45437;-81
2023/05/27 04:06:31;;;;;;;;;9.67;9.00;;;;;17.04;71.13;100366.91;5077092;28;45401;-80
2023/05/27 04:08:57;;;;;;;;;11.75;10.00;;;;;16.12;71.53;100232.25;5077389;28;45309;-81
2023/05/27 04:11:26;;;;;;;;;11.33;9.33;;;;;16.43;71.12;100280.63;5058594;28;46273;-80
2023/05/27 04:13:52;;;;;;;;;5.67;5.67;;;;;16.49;71.05;100278.91;5077317;28;45322;-81
2023/05/27 04:16:17;;;;;;;;;11.00;9.00;;;;;15.61;71.35;100138.13;5077112;28;45465;-80
2023/05/27 04:18:48;;;;;;;;;11.00;9.33;;;;;16.29;71.52;100275.31;5077222;28;45267;-81
2023/05/27 04:21:17;;;;;;;;;10.33;10.33;;;;;16.35;71.91;100296.44;5076732;28;46620;-81
2023/05/27 04:23:43;;;;;;;;;8.00;7.00;;;;;16.48;71.71;100332.50;5076798;28;45519;-81
2023/05/27 04:26:09;;;;;;;;;4.75;4.50;;;;;16.48;71.87;100323.72;5076859;28;45690;-80
2023/05/27 04:28:35;;;;;;;;;11.00;9.75;;;;;15.26;71.71;100157.31;5079401;28;45398;-81
2023/05/27 04:31:01;;;;;;;;;12.50;10.00;;;;;16.01;71.40;100241.00;5080123;28;45537;-81
2023/05/27 04:33:26;;;;;;;;;11.50;10.25;;;;;16.30;71.73;100285.88;5079982;27;45235;-81
2023/05/27 04:35:53;;;;;;;;;12.50;11.75;;;;;16.00;72.10;100252.44;5080815;27;45319;-81
2023/05/27 04:38:22;;;;;;;;;10.00;10.00;;;;;16.23;72.32;100299.91;5080758;28;45365;-80
2023/05/27 04:40:53;;;;;;;;;13.25;10.00;;;;;16.58;72.17;100362.41;5079996;28;45426;-81
2023/05/27 04:43:23;;;;;;;;;9.00;8.67;;;;;16.16;72.25;100284.97;5079858;28;45498;-81
2023/05/27 04:45:49;;;;;;;;;9.33;8.67;;;;;15.68;71.92;100189.09;5080192;28;45438;-81
2023/05/27 04:48:15;;;;;;;;;10.00;10.00;;;;;14.64;71.65;100001.00;5080235;28;45244;-80
2023/05/27 04:50:41;;;;;;;;;9.33;8.00;;;;;16.55;71.26;100314.91;5079812;28;45414;-80
2023/05/27 04:53:08;;;;;;;;;8.00;8.00;;;;;16.90;70.76;100365.13;5079895;28;45513;-80
2023/05/27 04:55:34;;;;;;;;;9.33;8.33;;;;;16.66;70.56;100322.88;5080017;28;45306;-80
2023/05/27 04:58:03;;;;;;;;;11.00;9.00;;;;;16.68;70.50;100305.28;5061712;28;45325;-80
2023/05/27 05:00:38;;;;;;;;;11.25;10.00;;;;;16.15;70.26;100200.63;5079748;28;45624;-81
2023/05/27 05:03:08;;;;;;;;;9.50;8.25;;;;;16.63;69.87;100275.38;5079386;27;45604;-81
2023/05/27 05:05:34;;;;;;;;;11.25;10.50;;;;;16.45;69.90;100234.97;5079755;28;45240;-80
2023/05/27 05:08:00;;;;;;;;;11.00;9.00;;;;;16.05;69.93;100155.81;5079848;28;45418;-80
2023/05/27 05:10:26;;;;;;;;;10.25;9.75;;;;;16.14;69.47;100162.88;5079777;28;46412;-81
2023/05/27 05:12:52;;;;;;;;;10.75;8.25;;;;;17.26;69.67;100363.38;5080101;28;45407;-81
2023/05/27 05:15:18;;;;;;;;;13.25;12.25;;;;;17.45;69.46;100371.31;5079681;28;45224;-80
2023/05/27 05:17:43;;;;;;;;;10.00;10.00;;;;;17.38;69.09;100353.72;5079960;28;45283;-80
2023/05/27 05:20:10;;;;;;;;;13.75;11.75;;;;;16.29;68.63;100177.81;5079478;28;46168;-81
2023/05/27 05:22:35;;;;;;;;;13.00;12.00;;;;;17.59;69.24;100372.16;5079351;27;45409;-81
2023/05/27 05:25:01;;;;;;;;;14.33;10.67;;;;;15.96;69.05;100087.31;5079354;27;45426;-80
2023/05/27 05:27:27;;;;;;;;;13.67;11.33;;;;;17.84;68.55;100372.16;5079369;28;45486;-79
2023/05/27 05:29:54;;;;;;;;;10.67;10.67;;;;;18.00;68.44;100368.56;5079558;28;46479;-80
2023/05/27 05:32:20;;;;;;;;;11.00;11.00;;;;;17.80;67.49;100320.16;5079036;27;45256;-81
2023/05/27 05:34:45;;;;;;;;;10.67;9.67;;;;;17.27;67.34;100196.19;5079328;28;45525;-81
2023/05/27 05:37:11;;;;;;;;;12.00;11.00;;;;;17.80;67.14;100275.25;5061298;28;45599;-80
2023/05/27 05:39:37;;;;;;;;;10.67;10.33;;;;;17.87;67.42;100299.03;5078908;28;45969;-81
2023/05/27 05:42:03;;;;;;;;;11.67;10.00;;;;;16.07;66.44;99992.47;5079099;28;45496;-80
2023/05/27 05:44:28;;;;;;;;;10.00;10.00;;;;;18.51;66.35;100341.03;5060824;28;45556;-80
2023/05/27 05:46:55;;;;;;;;;12.33;9.67;;;;;18.56;65.95;100312.75;5079615;28;45421;-81
2023/05/27 05:49:21;;;;;;;;;10.33;9.33;;;;;18.59;65.35;100276.59;5060730;28;45543;-81
2023/05/27 05:51:46;;;;;;;;;13.67;11.00;;;;;17.88;64.48;100125.50;5078995;28;45473;-81
2023/05/27 05:54:12;;;;;;;;;12.00;12.00;;;;;18.22;63.78;100144.66;5079107;28;45248;-80
2023/05/27 05:56:37;;;;;;;;;14.33;11.33;;;;;19.72;63.81;100360.41;5061007;28;45496;-81
2023/05/27 05:59:03;;;;;;;;;10.33;9.33;;;;;19.57;63.02;100293.38;5078863;28;46507;-80
2023/05/27 06:01:28;;;;;;;;;13.00;11.00;;;;;20.09;62.12;100349.38;5079017;28;45558;-80
2023/05/27 06:03:55;;;;;;;;;10.67;10.00;;;;;20.61;60.21;100208.03;5079240;28;45457;-80
2023/05/27 06:06:21;;;;;;;;;8.33;7.33;;;;;22.48;54.74;100184.75;5079208;27;45245;-80
2023/05/27 06:08:46;;;;;;;;;11.00;10.33;;;;;25.02;51.37;100351.78;5078032;27;46706;-81
2023/05/27 06:11:12;;;;;;;;;11.00;10.00;;;;;25.88;49.93;100278.38;5060505;27;45670;-81
2023/05/27 06:13:38;;;;;;;;;10.00;8.33;;;;;27.35;46.08;100348.50;5078724;28;45517;-81
2023/05/27 06:16:03;;;;;;;;;10.00;10.00;;;;;27.40;43.17;100209.72;5078914;28;45418;-81
2023/05/27 06:18:29;;;;;;;;;13.00;9.67;;;;;28.43;42.64;100249.66;5078828;28;45487;-81
2023/05/27 06:20:55;;;;;;;;;12.33;11.00;;;;;29.76;41.70;100340.72;5060656;28;45402;-81
2023/05/27 06:23:20;;;;;;;;;7.67;7.00;;;;;30.50;39.36;100356.44;5078429;28;45304;-81
2023/05/27 06:25:46;;;;;;;;;9.00;8.00;;;;;31.34;37.22;100377.72;5078831;28;45327;-81
2023/05/27 06:28:11;;;;;;;;;9.00;9.00;;;;;30.19;37.35;100080.63;5078381;27;45344;-81
2023/05/27 06:30:39;;;;;;;;;9.67;9.00;;;;;32.44;35.45;100361.09;5081305;28;45470;-81
2023/05/27 06:33:05;;;;;;;;;8.67;8.00;;;;;32.46;35.26;100318.59;5078316;28;45236;-81
2023/05/27 06:35:30;;;;;;;;;9.67;9.33;;;;;33.38;33.87;100366.63;5078318;28;45410;-80
2023/05/27 06:38:01;;;;;;;;;12.00;11.00;;;;;33.07;32.54;100243.34;5060015;27;46101;-81
2023/05/27 06:40:27;;;;;;;;;9.00;8.67;;;;;33.95;33.03;100285.97;5078478;28;45351;-80
2023/05/27 06:42:54;;;;;;;;;10.67;8.00;;;;;34.64;31.38;100319.78;5078175;27;45474;-81
2023/05/27 06:45:20;;;;;;;;;9.33;8.33;;;;;35.27;31.50;100341.31;5078489;28;45290;-81
2023/05/27 06:47:45;;;;;;;;;7.00;6.00;;;;;35.49;30.45;100267.19;5077917;28;45501;-81
2023/05/27 06:50:11;;;;;;;;;10.00;9.67;;;;;36.09;29.55;100305.03;5077287;28;45264;-80
2023/05/27 06:52:36;;;;;;;;;8.33;8.33;;;;;36.24;29.37;100274.78;5078205;28;45809;-81
2023/05/27 06:55:02;;;;;;;;;10.00;9.00;;;;;37.28;27.99;100372.38;5078276;28;45588;-81
2023/05/27 06:57:27;;;;;;;;;8.00;8.00;;;;;37.07;27.89;100296.06;5058858;28;47748;-80
2023/05/27 06:59:55;;;;;;;;;9.33;9.33;;;;;37.73;27.60;100364.84;5058599;28;45365;-80
2023/05/27 07:02:21;;;;;;;;;12.00;12.00;;;;;38.03;27.85;100357.69;5075559;27;45514;-81
2023/05/27 07:04:46;;;;;;;;;8.33;8.00;;;;;38.68;27.32;100376.50;5075236;28;45508;-80
2023/05/27 07:07:12;;;;;;;;;8.67;8.33;;;;;39.14;26.36;100375.03;5056374;28;45505;-80
2023/05/27 07:09:37;;;;;;;;;8.33;8.00;;;;;39.54;25.75;100350.28;5076843;28;45413;-81
2023/05/27 07:12:03;;;;;;;;;8.67;7.67;;;;;39.71;24.56;100263.03;5076842;28;45358;-81
2023/05/27 07:14:29;;;;;;;;;16.00;15.00;;;;;40.37;23.58;100349.59;5077444;28;45374;-81
2023/05/27 07:16:55;;;;;;;;;16.00;15.33;;;;;39.72;23.72;100194.53;5076531;28;46108;-80
2023/05/27 07:19:22;;;;;;;;;13.67;13.00;;;;;40.20;23.03;100230.00;5076509;28;45320;-80
2023/05/27 07:21:47;;;;;;;;;11.00;10.00;;;;;39.79;23.97;100112.75;5076646;28;45499;-81
2023/05/27 07:24:13;;;;;;;;;10.00;9.00;;;;;41.27;22.68;100306.75;5077152;28;45504;-81
2023/05/27 07:26:39;;;;;;;;;11.00;10.00;;;;;41.80;23.67;100326.00;5075203;27;46800;-80
2023/05/27 07:29:05;;;;;;;;;11.67;10.67;;;;;42.42;22.11;100318.41;5076389;28;45513;-81
2023/05/27 07:31:31;;;;;;;;;4.67;4.00;;;;;42.90;21.79;100321.50;5059215;28;45483;-81
2023/05/27 07:33:57;;;;;;;;;10.00;9.00;;;;;43.57;20.86;100378.22;5058419;28;45726;-82
2023/05/27 07:36:22;;;;;;;;;12.67;11.33;;;;;43.08;20.62;100302.09;5076729;28;46111;-83
2023/05/27 07:38:48;;;;;;;;;11.33;9.33;;;;;43.45;21.17;100373.06;5077249;28;45484;-83
2023/05/27 07:41:14;;;;;;;;;10.00;10.00;;;;;43.60;20.22;100303.63;5077327;28;45322;-80
2023/05/27 07:43:40;;;;;;;;;9.67;8.33;;;;;43.94;19.56;100354.81;5077329;27;45375;-80
2023/05/27 07:46:05;;;;;;;;;11.00;11.00;;;;;44.14;20.02;100360.78;5076983;28;46211;-79
2023/05/27 07:48:31;;;;;;;;;8.67;8.00;;;;;44.57;18.48;100336.50;5077202;28;45513;-81
2023/05/27 07:50:57;;;;;;;;;11.00;9.67;;;;;44.62;19.87;100359.72;5077251;28;45331;-81
2023/05/27 07:53:22;;;;;;;;;10.67;9.67;;;;;44.86;19.31;100363.34;5077209;28;45528;-80
2023/05/27 07:55:48;;;;;;;;;10.00;8.33;;;;;44.88;18.89;100363.22;5076718;28;45951;-80
2023/05/27 07:58:14;;;;;;;;;9.00;9.00;;;;;45.12;19.75;100363.03;5058641;28;45413;-81
2023/05/27 08:00:39;;;;;;;;;8.33;8.33;;;;;45.00;18.89;100320.41;5076858;27;45383;-83
2023/05/27 08:03:05;;;;;;;;;11.33;9.33;;;;;45.12;18.51;100363.03;5080352;28;45458;-81
2023/05/27 08:05:32;;;;;;;;;8.33;8.33;;;;;45.17;20.43;100357.81;5080456;28;45490;-80
2023/05/27 08:07:58;;;;;;;;;8.00;7.67;;;;;45.77;18.37;100350.59;5080298;28;45535;-82
2023/05/27 08:10:24;;;;;;;;;9.00;8.67;;;;;45.93;18.49;100343.19;5080429;27;45319;-82
2023/05/27 08:12:49;;;;;;;;;8.67;8.67;;;;;46.42;18.83;100353.66;5080446;28;45446;-83
2023/05/27 08:15:15;;;;;;;;;9.00;9.00;;;;;46.48;18.15;100338.19;5080042;28;45306;-81
2023/05/27 08:17:42;;;;;;;;;10.00;8.67;;;;;46.38;18.22;100338.47;5080251;28;45348;-80
2023/05/27 08:20:08;;;;;;;;;9.00;9.00;;;;;46.17;17.97;100331.00;5062350;28;45370;-80
2023/05/27 08:22:33;;;;;;;;;9.67;9.33;;;;;46.58;18.14;100350.69;5080163;28;45467;-81
2023/05/27 08:24:59;;;;;;;;;9.33;9.33;;;;;46.57;18.01;100351.72;5079464;28;45388;-84
2023/05/27 08:27:50;;;;;;;;;10.00;8.00;;;;;46.77;18.11;100353.84;5079308;28;45510;-80
2023/05/27 08:30:17;;;;;;;;;8.67;8.00;;;;;46.45;18.12;100335.84;5061085;28;45421;-84
2023/05/27 08:32:43;;;;;;;;;9.33;9.00;;;;;46.79;18.26;100348.97;5079186;28;45553;-83
2023/05/27 08:35:10;;;;;;;;;9.67;8.67;;;;;46.41;17.95;100325.13;5079170;28;46080;-77
2023/05/27 08:37:35;;;;;;;;;9.00;9.00;;;;;46.55;17.75;100336.38;5079175;28;45290;-85
2023/05/27 08:40:01;;;;;;;;;11.33;11.00;;;;;46.06;17.71;100334.25;5078957;28;45379;-79
2023/05/27 08:42:26;;;;;;;;;8.67;8.67;;;;;46.20;18.64;100334.25;5078963;28;45590;-79
2023/05/27 08:44:52;;;;;;;;;9.00;8.33;;;;;46.15;17.85;100344.16;5078886;28;46263;-77
2023/05/27 08:47:18;;;;;;;;;9.67;9.33;;;;;46.10;18.02;100333.66;5079087;28;45710;-79
2023/05/27 08:49:44;;;;;;;;;10.00;8.67;;;;;46.57;17.71;100329.59;5076324;28;45513;-79
2023/05/27 08:52:11;;;;;;;;;8.67;8.00;;;;;46.72;18.08;100336.97;5079515;27;45504;-84
2023/05/27 08:54:37;;;;;;;;;9.67;9.00;;;;;46.90;16.83;100329.16;5078957;28;45448;-79
2023/05/27 08:57:07;;;;;;;;;6.67;6.67;;;;;47.02;17.30;100333.09;5075916;28;45553;-79
2023/05/27 08:59:36;;;;;;;;;7.67;7.67;;;;;46.94;16.93;100324.06;5078748;28;45398;-80
2023/05/27 09:02:04;;;;;;;;;10.33;9.00;;;;;46.46;17.75;100291.47;5079360;27;45489;-79
2023/05/27 09:04:30;;;;;;;;;11.67;11.33;;;;;46.87;17.28;100334.22;5078865;28;45455;-78
2023/05/27 09:06:56;;;;;;;;;9.33;7.67;;;;;46.93;17.94;100300.25;5078816;27;45420;-78
2023/05/27 09:09:21;;;;;;;;;8.33;8.33;;;;;47.14;16.34;100346.38;5061212;28;45422;-78
2023/05/27 09:11:47;;;;;;;;;9.00;9.00;;;;;46.59;15.99;100332.19;5079612;28;45478;-78
2023/05/27 09:14:23;;;;;;;;;10.33;10.00;;;;;46.37;17.27;100336.78;5077906;27;45433;-78
2023/05/27 09:16:49;;;;;;;;;10.00;8.00;;;;;46.54;17.50;100320.84;5078972;28;45378;-80
2023/05/27 09:19:19;;;;;;;;;9.33;8.67;;;;;47.00;16.67;100326.06;5079129;27;45342;-79
2023/05/27 09:21:45;;;;;;;;;10.00;9.00;;;;;46.85;15.64;100315.06;5079426;28;45452;-81
2023/05/27 09:24:11;;;;;;;;;9.00;8.67;;;;;46.57;16.36;100279.03;5079009;28;45532;-78
2023/05/27 09:26:38;;;;;;;;;8.67;6.33;;;;;45.75;16.23;100314.06;5079118;28;45232;-80
2023/05/27 09:29:07;;;;;;;;;9.00;7.67;;;;;46.12;15.96;100309.47;5078913;28;45226;-78
2023/05/27 09:31:42;;;;;;;;;10.00;9.00;;;;;46.02;16.24;100295.97;5079166;27;45456;-80
2023/05/27 09:34:14;;;;;;;;;8.00;8.00;;;;;46.35;16.10;100306.59;5078804;28;45363;-78
2023/05/27 09:36:47;;;;;;;;;10.00;8.33;;;;;46.07;15.65;100305.59;5078965;28;45236;-78
2023/05/27 09:39:17;;;;;;;;;9.00;9.00;;;;;45.91;15.87;100292.84;5078942;28;45490;-78
2023/05/27 09:41:43;;;;;;;;;10.00;8.67;;;;;45.59;15.41;100281.94;5078993;28;45408;-80
2023/05/27 09:44:09;;;;;;;;;9.67;8.00;;;;;45.82;15.01;100292.94;5077860;28;46275;-80
2023/05/27 09:46:36;;;;;;;;;9.00;7.67;;;;;45.60;15.64;100250.53;5078054;28;45468;-80
2023/05/27 09:49:05;;;;;;;;;9.67;7.67;;;;;45.43;15.90;100294.00;5076706;28;45522;-80
2023/05/27 09:51:32;;;;;;;;;7.33;6.67;;;;;44.83;15.58;100292.94;5078096;28;45529;-80
2023/05/27 09:53:58;;;;;;;;;9.33;8.33;;;;;44.54;16.29;100292.81;5077538;28;46153;-78
2023/05/27 09:56:28;;;;;;;;;9.00;8.33;;;;;44.26;16.50;100290.53;5078141;28;45469;-80
2023/05/27 09:58:57;;;;;;;;;8.33;7.33;;;;;43.98;17.08;100293.72;5077155;28;45216;-78
2023/05/27 10:01:30;;;;;;;;;10.33;9.33;;;;;44.00;16.79;100286.13;5077512;28;45467;-77
2023/05/27 10:03:56;;;;;;;;;9.00;8.00;;;;;44.13;16.78;100296.59;5077184;28;46061;-77
2023/05/27 10:06:32;;;;;;;;;8.67;8.33;;;;;43.61;16.46;100281.41;5076982;28;45647;-74
2023/05/27 10:08:57;;;;;;;;;9.00;7.33;;;;;43.18;17.75;100291.78;5077679;27;45453;-79
2023/05/27 10:11:30;;;;;;;;;9.00;8.00;;;;;42.94;19.17;100287.16;5077658;28;45437;-79
2023/05/27 10:13:56;;;;;;;;;8.33;8.00;;;;;42.63;20.41;100287.75;5077140;27;45420;-75
2023/05/27 10:16:23;;;;;;;;;16.00;15.00;;;;;42.29;21.26;100287.84;5077068;28;45513;-80
2023/05/27 10:18:53;;;;;;;;;22.33;21.67;;;;;41.52;21.21;100290.47;5076900;28;45633;-76
2023/05/27 10:21:22;;;;;;;;;18.00;15.00;;;;;40.69;21.96;100258.78;5074896;27;45228;-83
2023/05/27 10:23:58;;;;;;;;;22.67;19.00;;;;;40.61;22.42;100288.81;5077369;28;46064;-87
2023/05/27 10:26:36;;;;;;;;;28.00;23.33;;;;;40.17;23.91;100294.97;5073974;28;45575;-78
2023/05/27 10:29:07;;;;;;;;;16.00;13.67;;;;;39.88;23.69;100291.50;5075448;28;45423;-81
2023/05/27 10:31:33;;;;;;;;;10.33;10.33;;;;;39.94;23.80;100261.66;5077232;28;45544;-77
2023/05/27 10:33:58;;;;;;;;;9.33;9.00;;;;;39.90;23.09;100264.88;5076979;28;46219;-80
2023/05/27 10:36:35;;;;;;;;;9.33;9.00;;;;;40.30;22.69;100267.22;5077180;28;45443;-83
2023/05/27 10:39:05;;;;;;;;;8.33;7.33;;;;;41.10;22.22;100288.44;5075627;27;45425;-82
2023/05/27 10:41:49;;;;;;;;;10.00;10.00;;;;;40.87;22.61;100247.84;5078231;28;45393;-85
2023/05/27 10:44:29;;;;;;;;;9.00;9.00;;;;;41.36;22.78;100282.16;5078309;28;45339;-85
2023/05/27 10:47:09;;;;;;;;;9.67;9.00;;;;;41.56;22.78;100278.16;5078254;28;45325;-79
2023/05/27 10:49:37;;;;;;;;;9.33;8.67;;;;;41.53;21.56;100279.34;5077902;28;45224;-76
2023/05/27 10:52:15;;;;;;;;;6.67;6.67;;;;;41.85;21.80;100286.06;5077540;27;45407;-76
2023/05/27 10:54:43;;;;;;;;;10.00;10.00;;;;;42.28;21.30;100280.59;5076894;28;46054;-77
2023/05/27 10:57:09;;;;;;;;;10.00;10.00;;;;;42.04;20.81;100259.44;5077212;28;45492;-80
2023/05/27 10:59:49;;;;;;;;;9.33;8.33;;;;;41.92;21.34;100276.19;5077799;27;45404;-79
2023/05/27 11:02:14;;;;;;;;;11.00;10.33;;;;;41.52;22.44;100241.13;5077905;28;45528;-77
2023/05/27 11:04:43;;;;;;;;;8.00;8.00;;;;;41.49;22.28;100269.72;5077198;28;45513;-75
2023/05/27 11:07:08;;;;;;;;;7.33;7.33;;;;;41.29;22.37;100266.34;5077477;28;45390;-76
2023/05/27 11:09:51;;;;;;;;;11.00;9.33;;;;;39.87;22.94;100263.28;5076838;28;45472;-79
2023/05/27 11:12:18;;;;;;;;;13.33;11.67;;;;;39.64;23.86;100260.03;5077765;28;45409;-78
2023/05/27 11:14:46;;;;;;;;;10.67;10.33;;;;;39.49;23.69;100237.78;5077399;28;46095;-78
2023/05/27 11:17:12;;;;;;;;;10.33;10.00;;;;;39.30;24.40;100255.06;5077180;28;45486;-82
2023/05/27 11:19:39;;;;;;;;;11.00;10.00;;;;;39.01;24.81;100255.13;5077634;28;45434;-81